Thunder radar more information blitzortung!


Rain radar more information rain snow radar


   Es ist keine erhoehte Aufmerksamkeit aufgrund des Wetters notwendig.   -   Es gibt keine Warnungen :-).

METAR-Meldungen aus der Umgebung

   
EBBR - Brussels International Airport, Belgium
Entfernung von der Station bis: W 14 km
Aktualisierung: 12-12-2019 06:20
leicht bewölkt  
leicht bewölkt  
   Wind: SW 16.7 km/h
Wind: SW 16.7 km/h
Temperatur: 3°C
Gefühlt: -1°C
Taupunkt: 2°C
Luftfeuchte: 93%
Luftdruck: 1003 hPa
Bewölkt: leicht bewölkt
Sichtbarkeit: More than 10 km
Bewölkung: leicht bewölkt 2400 ft
EBBR 120520Z 23009KT 9999 FEW024 03/02 Q1003 NOSIG
EBBE - Beauvechain (Bevekom), Belgium
Entfernung von der Station bis: SSO 17 km
Aktualisierung: 12-12-2019 06:25
Stark bewölkt  
Stark bewölkt  
   Wind: SW 14.8 km/h
Wind: SW 14.8 km/h
Temperatur: 3°C
Gefühlt: -1°C
Taupunkt: 2°C
Luftfeuchte: 93%
Luftdruck: 1003 hPa
Bewölkt: Stark bewölkt
Sichtbarkeit: More than 10 km
Bewölkung: Stark bewölkt 2000 ft
EBBE 120525Z AUTO 22008KT 9999 BKN020/// 03/02 Q1003 WHT
EBDT - Schaffen, Belgium
Entfernung von der Station bis: ONO 29 km
Aktualisierung: 12-12-2019 06:47
Bewölkt  
Bewölkt  
   Wind: SW 7.4 km/h
Wind: SW 7.4 km/h
Temperatur: 3°C
Gefühlt: 1°C
Taupunkt: 2°C
Luftfeuchte: 93%
Luftdruck: 1003 hPa
Bewölkt: Bewölkt
Sichtbarkeit: More than 10 km
Bewölkung: Teilweise bewölkt 1600 ft,
Stark bewölkt 10000 ft,
Bewölkt 12000 ft
EBDT 120547Z AUTO 22004KT 9999 SCT016/// BKN100/// OVC120/// 03/02 Q1003 WHT
EBAW - Antwerp/Deurne, Belgium
Entfernung von der Station bis: NNW 38 km
Aktualisierung: 12-12-2019 06:20
leicht bewölkt  
leicht bewölkt  
   Wind: SW 14.8 km/h
Wind: SW 14.8 km/h
Temperatur: 4°C
Gefühlt: 1°C
Taupunkt: 2°C
Luftfeuchte: 87%
Luftdruck: 1002 hPa
Bewölkt: leicht bewölkt
Sichtbarkeit: More than 10 km
Bewölkung: leicht bewölkt 2800 ft
EBAW 120520Z AUTO 23008KT 9999 // FEW028/// 04/02 Q1002
EBCI - Charleroi/Gosselies, Belgium
Entfernung von der Station bis: SSW 51 km
Aktualisierung: 12-12-2019 06:20
Stark bewölkt  
Stark bewölkt  
   Wind: WSW 16.7 km/h
Wind: WSW 16.7 km/h
Temperatur: 3°C
Gefühlt: -1°C
Taupunkt: 2°C
Luftfeuchte: 93%
Luftdruck: 1003 hPa
Bewölkt: Stark bewölkt
Sichtbarkeit: More than 10 km
Bewölkung: leicht bewölkt 700 ft,
Stark bewölkt 900 ft
EBCI 120520Z 24009KT 9999 FEW007 BKN009 03/02 Q1003 NOSIG
EBLG - Bierset/Liege, Belgium
Entfernung von der Station bis: OSO 60 km
Aktualisierung: 12-12-2019 06:20
Stark bewölkt  
Stark bewölkt  
   Wind: SW 16.7 km/h
Wind: SW 16.7 km/h
Temperatur: 3°C
Gefühlt: -1°C
Taupunkt: 3°C
Luftfeuchte: 100%
Luftdruck: 1003 hPa
Bewölkt: Stark bewölkt
Sichtbarkeit: More than 10 km
Bewölkung: Stark bewölkt 1000 ft,
Stark bewölkt 3000 ft
EBLG 120520Z 23009KT 9999 BKN010 BKN030 03/03 Q1003 NOSIG

Script entwickelt von  Saratoga-weather.org Angepasst für das Template von  Weerstation Leuven